Observation data for Northfield on 07/10/2018      Previous  Date       Current Mesonet Observations  Soil Data  Daily Summary Page  Observations in Plain Language
KNOR 100505Z 15006KT 25/17 A3018 RMK A01 T02540171  RH  062%=      5-min Rain = 0
KNOR 100510Z 15007KT 25/17 A3018 RMK A01 T02520171  RH  062%=      5-min Rain = 0
KNOR 100515Z 15006KT 25/17 A3018 RMK A01 T02520172  RH  063%=      5-min Rain = 0
KNOR 100520Z 15006KT 25/17 A3018 RMK A01 T02510172  RH  063%=      5-min Rain = 0
KNOR 100525Z 15006KT 25/17 A3018 RMK A01 T02490172  RH  064%=      5-min Rain = 0
KNOR 100530Z 14006KT 25/17 A3018 RMK A01 T02460172  RH  065%=      5-min Rain = 0
KNOR 100535Z 14006KT 25/17 A3018 RMK A01 T02460172  RH  065%=      5-min Rain = 0
KNOR 100540Z 14006KT 25/17 A3019 RMK A01 T02460172  RH  065%=      5-min Rain = 0
KNOR 100545Z 14006KT 25/17 A3018 RMK A01 T02460172  RH  065%=      5-min Rain = 0
KNOR 100550Z 13007KT 24/17 A3019 RMK A01 T02440172  RH  066%=      5-min Rain = 0
KNOR 100555Z 13006KT 24/17 A3018 RMK A01 T02440172  RH  066%=      5-min Rain = 0
KNOR 100600Z 14006KT 24/17 A3018 RMK A01 T02440172  RH  066%=      5-min Rain = 0
KNOR 100605Z 14007KT 25/17 A3018 RMK A01 T02450172  RH  065%=      5-min Rain = 0
KNOR 100610Z 14007KT 24/17 A3018 RMK A01 T02440172  RH  066%=      5-min Rain = 0
KNOR 100615Z 14006KT 24/17 A3018 RMK A01 T02430173  RH  066%=      5-min Rain = 0
KNOR 100620Z 14007KT 24/17 A3018 RMK A01 T02420173  RH  067%=      5-min Rain = 0
KNOR 100625Z 14007KT 24/17 A3018 RMK A01 T02420174  RH  067%=      5-min Rain = 0
KNOR 100630Z 14007KT 24/17 A3018 RMK A01 T02420174  RH  068%=      5-min Rain = 0
KNOR 100635Z 14007KT 24/18 A3018 RMK A01 T02410175  RH  068%=      5-min Rain = 0
KNOR 100640Z 14007KT 24/18 A3018 RMK A01 T02410175  RH  068%=      5-min Rain = 0
KNOR 100645Z 15006KT 24/18 A3018 RMK A01 T02420175  RH  068%=      5-min Rain = 0
KNOR 100650Z 15006KT 24/18 A3018 RMK A01 T02430176  RH  068%=      5-min Rain = 0
KNOR 100655Z 15006KT 24/18 A3018 RMK A01 T02430176  RH  068%=      5-min Rain = 0
KNOR 100700Z 16005KT 24/18 A3018 RMK A01 T02420176  RH  069%=      5-min Rain = 0
KNOR 100705Z 17005KT 24/18 A3018 RMK A01 T02400176  RH  069%=      5-min Rain = 0
KNOR 100710Z 17004KT 24/18 A3018 RMK A01 T02400176  RH  069%=      5-min Rain = 0
KNOR 100715Z 17004KT 24/18 A3018 RMK A01 T02390176  RH  070%=      5-min Rain = 0
KNOR 100720Z 16004KT 24/18 A3018 RMK A01 T02390176  RH  069%=      5-min Rain = 0
KNOR 100725Z 16004KT 24/18 A3018 RMK A01 T02390176  RH  069%=      5-min Rain = 0
KNOR 100730Z 16004KT 24/18 A3018 RMK A01 T02360176  RH  071%=      5-min Rain = 0
KNOR 100735Z 15005KT 23/18 A3018 RMK A01 T02340175  RH  071%=      5-min Rain = 0
KNOR 100740Z 13004KT 23/18 A3019 RMK A01 T02310176  RH  073%=      5-min Rain = 0
KNOR 100745Z 16003KT 23/18 A3019 RMK A01 T02290176  RH  074%=      5-min Rain = 0
KNOR 100750Z 16003KT 23/18 A3019 RMK A01 T02280175  RH  074%=      5-min Rain = 0
KNOR 100755Z 19003KT 23/18 A3019 RMK A01 T02260176  RH  075%=      5-min Rain = 0
KNOR 100800Z 21002KT 22/18 A3019 RMK A01 T02210176  RH  078%=      5-min Rain = 0
KNOR 100805Z 18003KT 22/18 A3019 RMK A01 T02230175  RH  076%=      5-min Rain = 0
KNOR 100810Z 18004KT 22/18 A3019 RMK A01 T02240175  RH  075%=      5-min Rain = 0
KNOR 100815Z 18005KT 22/17 A3019 RMK A01 T02220174  RH  076%=      5-min Rain = 0
KNOR 100820Z 18006KT 22/17 A3019 RMK A01 T02210174  RH  076%=      5-min Rain = 0
KNOR 100825Z 19006KT 22/17 A3019 RMK A01 T02210174  RH  077%=      5-min Rain = 0
KNOR 100830Z 19006KT 22/17 A3018 RMK A01 T02200173  RH  077%=      5-min Rain = 0
KNOR 100835Z 19005KT 22/17 A3018 RMK A01 T02190173  RH  077%=      5-min Rain = 0
KNOR 100840Z 18005KT 22/17 A3018 RMK A01 T02190174  RH  077%=      5-min Rain = 0
KNOR 100845Z 19006KT 22/17 A3018 RMK A01 T02200173  RH  077%=      5-min Rain = 0
KNOR 100850Z 19005KT 22/17 A3018 RMK A01 T02210173  RH  076%=      5-min Rain = 0
KNOR 100855Z 18004KT 22/17 A3019 RMK A01 T02220173  RH  076%=      5-min Rain = 0
KNOR 100900Z 18004KT 22/17 A3019 RMK A01 T02220174  RH  076%=      5-min Rain = 0
KNOR 100905Z 19004KT 22/17 A3019 RMK A01 T02240173  RH  075%=      5-min Rain = 0
KNOR 100910Z 18004KT 23/17 A3019 RMK A01 T02260173  RH  074%=      5-min Rain = 0
KNOR 100915Z 16005KT 23/17 A3019 RMK A01 T02260173  RH  074%=      5-min Rain = 0
KNOR 100920Z 17005KT 23/17 A3019 RMK A01 T02250172  RH  074%=      5-min Rain = 0
KNOR 100925Z 18004KT 22/17 A3018 RMK A01 T02230172  RH  075%=      5-min Rain = 0
KNOR 100930Z 19004KT 22/17 A3018 RMK A01 T02240172  RH  074%=      5-min Rain = 0
KNOR 100935Z 20005KT 22/17 A3018 RMK A01 T02230172  RH  075%=      5-min Rain = 0
KNOR 100940Z 21005KT 22/17 A3018 RMK A01 T02160172  RH  078%=      5-min Rain = 0
KNOR 100945Z 22004KT 21/17 A3018 RMK A01 T02100172  RH  081%=      5-min Rain = 0
KNOR 100950Z 23004KT 21/17 A3018 RMK A01 T02080172  RH  082%=      5-min Rain = 0
KNOR 100955Z 22004KT 21/17 A3018 RMK A01 T02100173  RH  081%=      5-min Rain = 0
KNOR 101000Z 22004KT 21/17 A3018 RMK A01 T02110172  RH  081%=      5-min Rain = 0
KNOR 101005Z 22004KT 21/17 A3018 RMK A01 T02120172  RH  080%=      5-min Rain = 0
KNOR 101010Z 22004KT 21/17 A3018 RMK A01 T02110172  RH  080%=      5-min Rain = 0
KNOR 101015Z 23003KT 21/17 A3018 RMK A01 T02110172  RH  080%=      5-min Rain = 0
KNOR 101020Z 23003KT 21/17 A3018 RMK A01 T02120172  RH  080%=      5-min Rain = 0
KNOR 101025Z 24004KT 21/17 A3018 RMK A01 T02100172  RH  081%=      5-min Rain = 0
KNOR 101030Z 24004KT 21/17 A3018 RMK A01 T02100172  RH  081%=      5-min Rain = 0
KNOR 101035Z 25003KT 21/17 A3018 RMK A01 T02090172  RH  081%=      5-min Rain = 0
KNOR 101040Z 24003KT 21/17 A3018 RMK A01 T02100171  RH  080%=      5-min Rain = 0
KNOR 101045Z 24002KT 21/17 A3018 RMK A01 T02120170  RH  079%=      5-min Rain = 0
KNOR 101050Z 24003KT 21/17 A3018 RMK A01 T02130170  RH  079%=      5-min Rain = 0
KNOR 101055Z 25003KT 21/17 A3019 RMK A01 T02130171  RH  079%=      5-min Rain = 0
KNOR 101100Z 27002KT 21/17 A3019 RMK A01 T02130171  RH  079%=      5-min Rain = 0
KNOR 101105Z 30003KT 21/17 A3019 RMK A01 T02100172  RH  081%=      5-min Rain = 0
KNOR 101110Z 29004KT 21/17 A3019 RMK A01 T02070173  RH  083%=      5-min Rain = 0
KNOR 101115Z 29003KT 21/17 A3019 RMK A01 T02060173  RH  083%=      5-min Rain = 0
KNOR 101120Z 31002KT 21/17 A3019 RMK A01 T02050172  RH  083%=      5-min Rain = 0
KNOR 101125Z 28001KT 21/17 A3019 RMK A01 T02060173  RH  083%=      5-min Rain = 0
KNOR 101130Z 26001KT 21/17 A3019 RMK A01 T02060174  RH  084%=      5-min Rain = 0
KNOR 101135Z 26002KT 21/17 A3019 RMK A01 T02050173  RH  084%=      5-min Rain = 0
KNOR 101140Z 26003KT 20/17 A3018 RMK A01 T02040173  RH  084%=      5-min Rain = 0
KNOR 101145Z 26004KT 20/17 A3018 RMK A01 T02020173  RH  086%=      5-min Rain = 0
KNOR 101150Z 25004KT 20/17 A3019 RMK A01 T02000173  RH  086%=      5-min Rain = 0
KNOR 101155Z 25004KT 20/17 A3019 RMK A01 T01980172  RH  087%=      5-min Rain = 0
KNOR 101200Z 25003KT 20/17 A3019 RMK A01 T01990172  RH  087%=      5-min Rain = 0
KNOR 101205Z 25003KT 20/17 A3019 RMK A01 T02000173  RH  087%=      5-min Rain = 0
KNOR 101210Z 24004KT 20/17 A3019 RMK A01 T02000173  RH  087%=      5-min Rain = 0
KNOR 101215Z 23005KT 20/17 A3018 RMK A01 T02000173  RH  087%=      5-min Rain = 0
KNOR 101220Z 23005KT 20/17 A3019 RMK A01 T02010174  RH  087%=      5-min Rain = 0
KNOR 101225Z 23005KT 20/18 A3019 RMK A01 T02020175  RH  086%=      5-min Rain = 0
KNOR 101230Z 23004KT 21/18 A3019 RMK A01 T02050176  RH  086%=      5-min Rain = 0
KNOR 101235Z 24004KT 21/18 A3018 RMK A01 T02080179  RH  086%=      5-min Rain = 0
KNOR 101240Z 24004KT 21/18 A3018 RMK A01 T02110180  RH  085%=      5-min Rain = 0
KNOR 101245Z 24004KT 21/18 A3019 RMK A01 T02140180  RH  083%=      5-min Rain = 0
KNOR 101250Z 24004KT 22/18 A3019 RMK A01 T02170180  RH  082%=      5-min Rain = 0
KNOR 101255Z 24004KT 22/18 A3019 RMK A01 T02200181  RH  080%=      5-min Rain = 0
KNOR 101300Z 24004KT 22/18 A3019 RMK A01 T02230181  RH  079%=      5-min Rain = 0
KNOR 101305Z 24004KT 23/18 A3019 RMK A01 T02250180  RH  077%=      5-min Rain = 0
KNOR 101310Z 26003KT 23/18 A3019 RMK A01 T02280180  RH  076%=      5-min Rain = 0
KNOR 101315Z 26003KT 23/18 A3019 RMK A01 T02310179  RH  075%=      5-min Rain = 0
KNOR 101320Z 26004KT 23/18 A3019 RMK A01 T02340180  RH  074%=      5-min Rain = 0
KNOR 101325Z 27003KT 24/18 A3019 RMK A01 T02370181  RH  073%=      5-min Rain = 0
KNOR 101330Z 27003KT 24/18 A302 RMK A01 T02400180  RH  071%=      5-min Rain = 0
KNOR 101335Z 26003KT 24/18 A302 RMK A01 T02430180  RH  070%=      5-min Rain = 0
KNOR 101340Z 25002KT 25/18 A302 RMK A01 T02460181  RH  069%=      5-min Rain = 0
KNOR 101345Z 26002KT 25/18 A302 RMK A01 T02500181  RH  067%=      5-min Rain = 0
KNOR 101350Z 29002KT 25/18 A302 RMK A01 T02540180  RH  065%=      5-min Rain = 0
KNOR 101355Z 31003KT 26/18 A302 RMK A01 T02570181  RH  065%=      5-min Rain = 0
KNOR 101400Z 32003KT 26/18 A302 RMK A01 T02590182  RH  064%=      5-min Rain = 0
KNOR 101405Z 34003KT 26/18 A302 RMK A01 T02610183  RH  064%=      5-min Rain = 0
KNOR 101410Z 33002KT 27/18 A302 RMK A01 T02650184  RH  063%=      5-min Rain = 0
KNOR 101415Z 33003KT 27/18 A302 RMK A01 T02660183  RH  062%=      5-min Rain = 0
KNOR 101420Z 34002KT 27/18 A302 RMK A01 T02650183  RH  062%=      5-min Rain = 0
KNOR 101425Z 35003KT 27/19 A302 RMK A01 T02700185  RH  061%=      5-min Rain = 0
KNOR 101430Z 00002KT 27/18 A302 RMK A01 T02730184  RH  060%=      5-min Rain = 0
KNOR 101435Z 04001KT 28/19 A302 RMK A01 T02770185  RH  059%=      5-min Rain = 0
KNOR 101440Z 02001KT 28/19 A302 RMK A01 T02830187  RH  057%=      5-min Rain = 0
KNOR 101445Z 02001KT 28/19 A302 RMK A01 T02840185  RH  057%=      5-min Rain = 0
KNOR 101450Z 31001KT 29/19 A302 RMK A01 T02860186  RH  056%=      5-min Rain = 0
KNOR 101455Z 33001KT 29/19 A302 RMK A01 T02860185  RH  056%=      5-min Rain = 0
KNOR 101500Z 31001KT 29/19 A302 RMK A01 T02890186  RH  055%=      5-min Rain = 0
KNOR 101505Z 36003KT 29/19 A302 RMK A01 T02890187  RH  055%=      5-min Rain = 0
KNOR 101510Z 30002KT 29/19 A302 RMK A01 T02910185  RH  054%=      5-min Rain = 0
KNOR 101515Z 21001KT 29/19 A302 RMK A01 T02920185  RH  054%=      5-min Rain = 0
KNOR 101520Z 13001KT 29/19 A3019 RMK A01 T02920185  RH  054%=      5-min Rain = 0
KNOR 101525Z 03002KT 30/18 A3019 RMK A01 T02980183  RH  052%=      5-min Rain = 0
KNOR 101530Z 34002KT 30/18 A3019 RMK A01 T02980181  RH  051%=      5-min Rain = 0
KNOR 101535Z 08002KT 30/18 A3019 RMK A01 T03000182  RH  050%=      5-min Rain = 0
KNOR 101540Z 05001KT 30/18 A3019 RMK A01 T03020182  RH  050%=      5-min Rain = 0
KNOR 101545Z 04004KT 30/18 A3019 RMK A01 T03020179  RH  049%=      5-min Rain = 0
KNOR 101550Z 03003KT 30/18 A3019 RMK A01 T03010180  RH  049%=      5-min Rain = 0
KNOR 101555Z 06002KT 31/18 A3019 RMK A01 T03050178  RH  048%=      5-min Rain = 0
KNOR 101600Z 07003KT 31/17 A3019 RMK A01 T03060174  RH  046%=      5-min Rain = 0
KNOR 101605Z 14002KT 31/17 A3019 RMK A01 T03080174  RH  046%=      5-min Rain = 0
KNOR 101610Z 10003KT 31/17 A3019 RMK A01 T03060174  RH  046%=      5-min Rain = 0
KNOR 101615Z 06001KT 31/18 A3019 RMK A01 T03100176  RH  046%=      5-min Rain = 0
KNOR 101620Z 03003KT 31/18 A3019 RMK A01 T03110179  RH  047%=      5-min Rain = 0
KNOR 101625Z 00002KT 31/18 A3019 RMK A01 T03120181  RH  047%=      5-min Rain = 0
KNOR 101630Z 16005KT 31/18 A3018 RMK A01 T03130179  RH  046%=      5-min Rain = 0
KNOR 101635Z 17002KT 31/18 A3018 RMK A01 T03090175  RH  046%=      5-min Rain = 0
KNOR 101640Z 13005G10KT 31/18 A3018 RMK A01 T03100180  RH  047%=      5-min Rain = 0
KNOR 101645Z 10002G7KT 31/18 A3018 RMK A01 T03080178  RH  047%=      5-min Rain = 0
KNOR 101650Z 02003KT 31/18 A3018 RMK A01 T03100180  RH  047%=      5-min Rain = 0
KNOR 101655Z 09005KT 31/18 A3018 RMK A01 T03140182  RH  047%=      5-min Rain = 0
KNOR 101700Z 09004KT 32/18 A3017 RMK A01 T03150181  RH  046%=      5-min Rain = 0
KNOR 101705Z 15003KT 32/18 A3017 RMK A01 T03170175  RH  044%=      5-min Rain = 0
KNOR 101710Z 13006G11KT 32/18 A3017 RMK A01 T03200181  RH  045%=      5-min Rain = 0
KNOR 101715Z 17005KT 32/18 A3017 RMK A01 T03160179  RH  045%=      5-min Rain = 0
KNOR 101720Z 20004KT 32/18 A3017 RMK A01 T03160179  RH  045%=      5-min Rain = 0
KNOR 101725Z 08006KT 32/18 A3017 RMK A01 T03210179  RH  044%=      5-min Rain = 0
KNOR 101730Z 07005KT 32/17 A3017 RMK A01 T03190174  RH  043%=      5-min Rain = 0
KNOR 101735Z 12003G12KT 32/17 A3016 RMK A01 T03210173  RH  042%=      5-min Rain = 0
KNOR 101740Z 10006KT 33/17 A3016 RMK A01 T03250168  RH  040%=      5-min Rain = 0
KNOR 101745Z 13004G9KT 32/17 A3016 RMK A01 T03220165  RH  040%=      5-min Rain = 0
KNOR 101750Z 12005G10KT 32/17 A3016 RMK A01 T03240167  RH  040%=      5-min Rain = 0
KNOR 101755Z 14002KT 32/17 A3016 RMK A01 T03240167  RH  040%=      5-min Rain = 0
KNOR 101800Z 09006KT 33/17 A3016 RMK A01 T03270168  RH  040%=      5-min Rain = 0
KNOR 101805Z 09007KT 32/16 A3015 RMK A01 T03200163  RH  040%=      5-min Rain = 0
KNOR 101810Z 07006KT 32/16 A3015 RMK A01 T03200160  RH  039%=      5-min Rain = 0
KNOR 101815Z 05006KT 32/16 A3015 RMK A01 T03240159  RH  038%=      5-min Rain = 0
KNOR 101820Z 09006KT 33/16 A3015 RMK A01 T03290162  RH  038%=      5-min Rain = 0
KNOR 101825Z 11007G13KT 33/17 A3014 RMK A01 T03300167  RH  039%=      5-min Rain = 0
KNOR 101830Z 12003G8KT 33/16 A3014 RMK A01 T03290164  RH  038%=      5-min Rain = 0
KNOR 101835Z 11005KT 33/16 A3014 RMK A01 T03250164  RH  039%=      5-min Rain = 0
KNOR 101840Z 13007KT 33/17 A3014 RMK A01 T03270166  RH  039%=      5-min Rain = 0
KNOR 101845Z 14004G9KT 33/17 A3014 RMK A01 T03300168  RH  039%=      5-min Rain = 0
KNOR 101850Z 15004G10KT 33/16 A3013 RMK A01 T03340164  RH  037%=      5-min Rain = 0
KNOR 101855Z 11007KT 34/17 A3013 RMK A01 T03410173  RH  038%=      5-min Rain = 0
KNOR 101900Z 06008KT 34/17 A3013 RMK A01 T03370167  RH  037%=      5-min Rain = 0
KNOR 101905Z 11008KT 33/17 A3013 RMK A01 T03260166  RH  039%=      5-min Rain = 0
KNOR 101910Z 10006KT 32/16 A3013 RMK A01 T03210163  RH  040%=      5-min Rain = 0
KNOR 101915Z 11009KT 33/16 A3012 RMK A01 T03250160  RH  038%=      5-min Rain = 0
KNOR 101920Z 14008KT 32/16 A3012 RMK A01 T03220162  RH  039%=      5-min Rain = 0
KNOR 101925Z 11004G10KT 33/16 A3012 RMK A01 T03330161  RH  037%=      5-min Rain = 0
KNOR 101930Z 09005G10KT 34/17 A3012 RMK A01 T03360166  RH  037%=      5-min Rain = 0
KNOR 101935Z 11008G13KT 34/17 A3011 RMK A01 T03350166  RH  037%=      5-min Rain = 0
KNOR 101940Z 09007KT 34/17 A3011 RMK A01 T03350168  RH  038%=      5-min Rain = 0
KNOR 101945Z 09004G10KT 34/17 A3011 RMK A01 T03400169  RH  037%=      5-min Rain = 0
KNOR 101950Z 12007KT 35/17 A301 RMK A01 T03450171  RH  037%=      5-min Rain = 0
KNOR 101955Z 10007KT 34/17 A301 RMK A01 T03370167  RH  037%=      5-min Rain = 0
KNOR 102000Z 07005KT 34/17 A301 RMK A01 T03400168  RH  037%=      5-min Rain = 0
KNOR 102005Z 10006KT 34/17 A301 RMK A01 T03410168  RH  036%=      5-min Rain = 0
KNOR 102010Z 16006G11KT 34/17 A301 RMK A01 T03430166  RH  036%=      5-min Rain = 0
KNOR 102015Z 16004KT 35/16 A3009 RMK A01 T03450163  RH  035%=      5-min Rain = 0
KNOR 102020Z 16008G13KT 35/17 A3009 RMK A01 T03450165  RH  035%=      5-min Rain = 0
KNOR 102025Z 15011KT 34/17 A3009 RMK A01 T03430166  RH  036%=      5-min Rain = 0
KNOR 102030Z 15009KT 34/17 A3009 RMK A01 T03440168  RH  036%=      5-min Rain = 0
KNOR 102035Z 17009KT 34/17 A3009 RMK A01 T03420169  RH  037%=      5-min Rain = 0
KNOR 102040Z 17008G13KT 33/17 A3008 RMK A01 T03340165  RH  037%=      5-min Rain = 0
KNOR 102045Z 18015G21KT 33/17 A3008 RMK A01 T03310172  RH  040%=      5-min Rain = 0
KNOR 102050Z 18014KT 33/17 A3008 RMK A01 T03270174  RH  041%=      5-min Rain = 0
KNOR 102055Z 17011G16KT 33/17 A3008 RMK A01 T03250173  RH  041%=      5-min Rain = 0
KNOR 102100Z 18012KT 34/18 A3008 RMK A01 T03360177  RH  040%=      5-min Rain = 0
KNOR 102105Z 18010KT 33/17 A3007 RMK A01 T03320171  RH  039%=      5-min Rain = 0
KNOR 102110Z 17009KT 34/17 A3007 RMK A01 T03410170  RH  037%=      5-min Rain = 0
KNOR 102115Z 15008KT 34/16 A3007 RMK A01 T03370163  RH  036%=      5-min Rain = 0
KNOR 102120Z 16009G15KT 34/17 A3007 RMK A01 T03400170  RH  037%=      5-min Rain = 0
KNOR 102125Z 16008KT 34/17 A3007 RMK A01 T03380169  RH  037%=      5-min Rain = 0
KNOR 102130Z 16009KT 33/16 A3007 RMK A01 T03290163  RH  038%=      5-min Rain = 0
KNOR 102135Z 15009KT 33/16 A3006 RMK A01 T03340163  RH  037%=      5-min Rain = 0
KNOR 102140Z 16009KT 34/17 A3006 RMK A01 T03390167  RH  037%=      5-min Rain = 0
KNOR 102145Z 15007KT 34/17 A3006 RMK A01 T03380165  RH  037%=      5-min Rain = 0
KNOR 102150Z 15008KT 34/17 A3006 RMK A01 T03380165  RH  036%=      5-min Rain = 0
KNOR 102155Z 12007KT 34/17 A3006 RMK A01 T03390165  RH  036%=      5-min Rain = 0
KNOR 102200Z 16008KT 34/17 A3006 RMK A01 T03420165  RH  036%=      5-min Rain = 0
KNOR 102205Z 16007KT 34/17 A3005 RMK A01 T03430165  RH  035%=      5-min Rain = 0
KNOR 102210Z 16008G13KT 34/17 A3005 RMK A01 T03430165  RH  035%=      5-min Rain = 0
KNOR 102215Z 17007KT 34/16 A3005 RMK A01 T03410162  RH  035%=      5-min Rain = 0
KNOR 102220Z 14006KT 34/16 A3005 RMK A01 T03420162  RH  035%=      5-min Rain = 0
KNOR 102225Z 15007KT 35/16 A3005 RMK A01 T03460163  RH  034%=      5-min Rain = 0
KNOR 102230Z 17009KT 34/16 A3005 RMK A01 T03440162  RH  035%=      5-min Rain = 0
KNOR 102235Z 15009KT 34/16 A3004 RMK A01 T03430162  RH  035%=      5-min Rain = 0
KNOR 102240Z 15007G12KT 34/16 A3004 RMK A01 T03400161  RH  035%=      5-min Rain = 0
KNOR 102245Z 15006KT 34/16 A3003 RMK A01 T03390164  RH  036%=      5-min Rain = 0
KNOR 102250Z 13006KT 34/16 A3003 RMK A01 T03430163  RH  035%=      5-min Rain = 0
KNOR 102255Z 17007KT 34/17 A3003 RMK A01 T03440166  RH  035%=      5-min Rain = 0
KNOR 102300Z 14005KT 34/17 A3003 RMK A01 T03430165  RH  035%=      5-min Rain = 0
KNOR 102305Z 16005KT 33/16 A3003 RMK A01 T03340163  RH  037%=      5-min Rain = 0
KNOR 102310Z 14005KT 34/16 A3003 RMK A01 T03350164  RH  037%=      5-min Rain = 0
KNOR 102315Z 13011G18KT 34/17 A3003 RMK A01 T03440167  RH  036%=      5-min Rain = 0
KNOR 102320Z 13018G25KT 33/17 A3003 RMK A01 T03320169  RH  039%=      5-min Rain = 0
KNOR 102325Z 13017G22KT 32/17 A3003 RMK A01 T03170170  RH  042%=      5-min Rain = 0
KNOR 102330Z 13023G32KT 30/17 A3004 RMK A01 T02990172  RH  048%=      5-min Rain = 0
KNOR 102335Z 12022G30KT 28/18 A3005 RMK A01 T02830183  RH  056%=      5-min Rain = 0
KNOR 102340Z 13022G30KT 28/19 A3005 RMK A01 T02760188  RH  060%=      5-min Rain = 0
KNOR 102345Z 13018G26KT 27/19 A3005 RMK A01 T02720190  RH  063%=      5-min Rain = 0
KNOR 102350Z 13020G28KT 27/19 A3005 RMK A01 T02710191  RH  063%=      5-min Rain = 0
KNOR 102355Z 14019G27KT 27/19 A3005 RMK A01 T02700191  RH  064%=      5-min Rain = 0
KNOR 110000Z 14020G26KT 27/19 A3005 RMK A01 T02690189  RH  063%=      5-min Rain = 0
KNOR 110005Z 14019G27KT 27/19 A3005 RMK A01 T02700189  RH  063%=      5-min Rain = 0
KNOR 110010Z 15018G24KT 27/19 A3005 RMK A01 T02650190  RH  065%=      5-min Rain = 0
KNOR 110015Z 15014G23KT 26/19 A3005 RMK A01 T02620192  RH  067%=      5-min Rain = 0
KNOR 110020Z 16016G21KT 26/19 A3005 RMK A01 T02620191  RH  067%=      5-min Rain = 0
KNOR 110025Z 16017KT 26/19 A3004 RMK A01 T02640189  RH  065%=      5-min Rain = 0
KNOR 110030Z 17016G23KT 27/19 A3004 RMK A01 T02700186  RH  062%=      5-min Rain = 0
KNOR 110035Z 18016G22KT 27/19 A3004 RMK A01 T02710185  RH  061%=      5-min Rain = 0
KNOR 110040Z 18014G20KT 27/17 A3004 RMK A01 T02710173  RH  057%=      5-min Rain = 0
KNOR 110045Z 17013KT 27/17 A3004 RMK A01 T02700168  RH  055%=      5-min Rain = 0
KNOR 110050Z 18012G17KT 27/17 A3004 RMK A01 T02690166  RH  054%=      5-min Rain = 0
KNOR 110055Z 18012KT 27/17 A3004 RMK A01 T02680167  RH  055%=      5-min Rain = 0
KNOR 110100Z 17012KT 27/17 A3004 RMK A01 T02690170  RH  056%=      5-min Rain = 0
KNOR 110105Z 17011KT 27/17 A3004 RMK A01 T02720174  RH  056%=      5-min Rain = 0
KNOR 110110Z 17010KT 27/18 A3004 RMK A01 T02730175  RH  056%=      5-min Rain = 0
KNOR 110115Z 17010KT 27/17 A3004 RMK A01 T02730174  RH  056%=      5-min Rain = 0
KNOR 110120Z 16009KT 27/17 A3004 RMK A01 T02700174  RH  057%=      5-min Rain = 0
KNOR 110125Z 16008KT 27/17 A3004 RMK A01 T02680174  RH  058%=      5-min Rain = 0
KNOR 110130Z 15008KT 27/17 A3005 RMK A01 T02660174  RH  058%=      5-min Rain = 0
KNOR 110135Z 15008KT 26/18 A3005 RMK A01 T02640175  RH  059%=      5-min Rain = 0
KNOR 110140Z 15009KT 26/18 A3005 RMK A01 T02610175  RH  060%=      5-min Rain = 0
KNOR 110145Z 15011KT 26/17 A3005 RMK A01 T02600174  RH  061%=      5-min Rain = 0
KNOR 110150Z 16010KT 26/18 A3006 RMK A01 T02590176  RH  062%=      5-min Rain = 0
KNOR 110155Z 15009KT 26/18 A3006 RMK A01 T02580178  RH  063%=      5-min Rain = 0
KNOR 110200Z 14008KT 26/18 A3006 RMK A01 T02570178  RH  063%=      5-min Rain = 0
KNOR 110205Z 14007KT 26/18 A3006 RMK A01 T02580177  RH  063%=      5-min Rain = 0
KNOR 110210Z 14007KT 26/18 A3006 RMK A01 T02570177  RH  063%=      5-min Rain = 0
KNOR 110215Z 14008KT 26/18 A3006 RMK A01 T02570177  RH  063%=      5-min Rain = 0
KNOR 110220Z 13008KT 26/18 A3006 RMK A01 T02580179  RH  063%=      5-min Rain = 0
KNOR 110225Z 13007KT 26/18 A3006 RMK A01 T02570183  RH  065%=      5-min Rain = 0
KNOR 110230Z 13007KT 26/19 A3007 RMK A01 T02550186  RH  067%=      5-min Rain = 0
KNOR 110235Z 14007KT 26/19 A3006 RMK A01 T02550187  RH  068%=      5-min Rain = 0
KNOR 110240Z 14008KT 26/19 A3006 RMK A01 T02560186  RH  067%=      5-min Rain = 0
KNOR 110245Z 14008KT 26/19 A3006 RMK A01 T02560186  RH  067%=      5-min Rain = 0
KNOR 110250Z 14008KT 26/19 A3006 RMK A01 T02560185  RH  067%=      5-min Rain = 0
KNOR 110255Z 14008KT 26/19 A3007 RMK A01 T02550186  RH  067%=      5-min Rain = 0
KNOR 110300Z 14008KT 26/19 A3007 RMK A01 T02550187  RH  068%=      5-min Rain = 0
KNOR 110305Z 14007KT 26/19 A3007 RMK A01 T02550188  RH  068%=      5-min Rain = 0
KNOR 110310Z 13007KT 26/19 A3007 RMK A01 T02550188  RH  068%=      5-min Rain = 0
KNOR 110315Z 13007KT 26/19 A3007 RMK A01 T02550189  RH  068%=      5-min Rain = 0
KNOR 110320Z 14007KT 26/19 A3007 RMK A01 T02550189  RH  069%=      5-min Rain = 0
KNOR 110325Z 14007KT 25/19 A3007 RMK A01 T02540189  RH  069%=      5-min Rain = 0
KNOR 110330Z 14007KT 25/19 A3007 RMK A01 T02530189  RH  069%=      5-min Rain = 0
KNOR 110335Z 14006KT 25/19 A3007 RMK A01 T02520189  RH  070%=      5-min Rain = 0
KNOR 110340Z 14006KT 25/19 A3008 RMK A01 T02510190  RH  070%=      5-min Rain = 0
KNOR 110345Z 14006KT 25/19 A3008 RMK A01 T02510190  RH  071%=      5-min Rain = 0
KNOR 110350Z 14006KT 25/19 A3008 RMK A01 T02500189  RH  071%=      5-min Rain = 0
KNOR 110355Z 14006KT 25/19 A3008 RMK A01 T02490189  RH  071%=      5-min Rain = 0
KNOR 110400Z 15006KT 25/19 A3008 RMK A01 T02490189  RH  071%=      5-min Rain = 0
KNOR 110405Z 15006KT 25/19 A3008 RMK A01 T02490189  RH  071%=      5-min Rain = 0
KNOR 110410Z 16006KT 25/19 A3008 RMK A01 T02490189  RH  071%=      5-min Rain = 0
KNOR 110415Z 16007KT 25/19 A3008 RMK A01 T02490189  RH  072%=      5-min Rain = 0
KNOR 110420Z 16007KT 25/19 A3008 RMK A01 T02480190  RH  072%=      5-min Rain = 0
KNOR 110425Z 16006KT 25/19 A3008 RMK A01 T02480190  RH  072%=      5-min Rain = 0
KNOR 110430Z 16007KT 25/19 A3008 RMK A01 T02470190  RH  072%=      5-min Rain = 0
KNOR 110435Z 16007KT 25/19 A3008 RMK A01 T02450190  RH  073%=      5-min Rain = 0
KNOR 110440Z 16006KT 24/19 A3008 RMK A01 T02430190  RH  074%=      5-min Rain = 0
KNOR 110445Z 16006KT 24/19 A3008 RMK A01 T02430190  RH  074%=      5-min Rain = 0
KNOR 110450Z 15005KT 24/19 A3008 RMK A01 T02430190  RH  074%=      5-min Rain = 0
KNOR 110455Z 15006KT 24/19 A3008 RMK A01 T02430189  RH  074%=      5-min Rain = 0
KNOR 110500Z 15006KT 24/19 A3008 RMK A01 T02430189  RH  074%=      5-min Rain = 0

Page generated in 0.0365 seconds.